createdAt,value
2019-03-01T00:01:15.364Z,64.61
2019-03-01T00:03:44.614Z,64.75
2019-03-01T00:06:33.173Z,64.88
2019-03-01T00:09:39.470Z,65.00
2019-03-01T00:12:35.485Z,64.85
2019-03-01T00:15:44.676Z,65.33
2019-03-01T00:18:37.480Z,66.05
2019-03-01T00:21:35.023Z,66.06
2019-03-01T00:24:59.362Z,66.09
2019-03-01T00:28:12.484Z,66.41
2019-03-01T00:31:14.590Z,66.50
2019-03-01T00:34:07.069Z,66.50
2019-03-01T00:37:04.589Z,66.29
2019-03-01T00:40:10.777Z,66.94
2019-03-01T00:43:20.858Z,67.43
2019-03-01T00:45:50.169Z,67.88
2019-03-01T00:48:19.357Z,68.04
2019-03-01T00:50:48.612Z,67.87
2019-03-01T00:53:17.897Z,67.74
2019-03-01T00:55:47.175Z,67.57
2019-03-01T00:58:16.385Z,67.43
2019-03-01T01:00:48.038Z,67.32
2019-03-01T01:03:17.279Z,66.60
2019-03-01T01:05:46.840Z,66.71
2019-03-01T01:08:16.111Z,66.46
2019-03-01T01:10:45.421Z,66.49
2019-03-01T01:13:14.645Z,66.88
2019-03-01T01:15:43.930Z,66.80
2019-03-01T01:18:13.271Z,66.88
2019-03-01T01:20:42.618Z,66.88
2019-03-01T01:23:11.829Z,67.14
2019-03-01T01:25:41.111Z,66.75
2019-03-01T01:28:10.363Z,66.35
2019-03-01T01:30:39.739Z,66.34
2019-03-01T01:33:08.986Z,66.35
2019-03-01T01:35:38.237Z,66.34
2019-03-01T01:38:07.452Z,66.79
2019-03-01T01:40:36.738Z,67.01
2019-03-01T01:43:05.990Z,67.32
2019-03-01T01:45:35.272Z,67.29
2019-03-01T01:48:04.495Z,67.29
2019-03-01T01:50:33.786Z,67.68
2019-03-01T01:53:03.034Z,67.70
2019-03-01T01:55:32.300Z,67.74
2019-03-01T01:58:01.568Z,68.43
2019-03-01T02:00:31.055Z,68.50
2019-03-01T02:03:00.289Z,69.04
2019-03-01T02:05:29.547Z,69.15
2019-03-01T02:07:58.821Z,68.41
2019-03-01T02:10:28.043Z,67.94
2019-03-01T02:12:57.260Z,67.84
2019-03-01T02:15:26.568Z,67.65
2019-03-01T02:17:55.787Z,67.55
2019-03-01T02:20:25.065Z,67.60
2019-03-01T02:22:54.400Z,67.59
2019-03-01T02:25:23.643Z,67.28
2019-03-01T02:27:52.862Z,67.14
2019-03-01T02:30:24.275Z,67.41
2019-03-01T02:32:53.574Z,67.37
2019-03-01T02:35:24.309Z,67.26
2019-03-01T02:37:53.522Z,67.39
2019-03-01T02:40:22.764Z,67.38
2019-03-01T02:42:51.994Z,67.28
2019-03-01T02:45:22.498Z,66.62
2019-03-01T02:47:51.746Z,66.74
2019-03-01T02:50:21.396Z,67.23
2019-03-01T02:52:50.718Z,67.16
2019-03-01T02:55:20.986Z,66.91
2019-03-01T02:57:50.202Z,66.46
2019-03-01T03:00:21.478Z,66.75
2019-03-01T03:02:50.768Z,67.07
2019-03-01T03:05:21.887Z,67.19
2019-03-01T03:08:02.138Z,67.22
2019-03-01T03:10:31.375Z,66.70
2019-03-01T03:13:02.937Z,66.21
2019-03-01T03:15:37.623Z,66.32
2019-03-01T03:18:06.875Z,66.07
2019-03-01T03:20:36.121Z,66.86
2019-03-01T03:23:05.458Z,67.74
2019-03-01T03:25:34.737Z,69.19
2019-03-01T03:28:04.029Z,70.09
2019-03-01T03:30:33.447Z,70.41
2019-03-01T03:33:02.712Z,71.60
2019-03-01T03:35:31.923Z,72.51
2019-03-01T03:38:01.206Z,71.71
2019-03-01T03:40:30.445Z,72.02
2019-03-01T03:42:59.708Z,72.34
2019-03-01T03:45:28.923Z,72.57
2019-03-01T03:47:58.190Z,72.34
2019-03-01T03:50:27.420Z,72.32
2019-03-01T03:52:56.656Z,72.63
2019-03-01T03:55:25.990Z,72.55
2019-03-01T03:57:55.234Z,72.89
2019-03-01T04:00:24.548Z,72.29
2019-03-01T04:02:53.821Z,72.18
2019-03-01T04:05:23.030Z,71.97
2019-03-01T04:07:52.290Z,72.05
2019-03-01T04:10:21.530Z,73.41
2019-03-01T04:12:50.762Z,73.54
2019-03-01T04:15:19.993Z,74.29
2019-03-01T04:17:49.225Z,75.57
2019-03-01T04:20:18.445Z,77.04
2019-03-01T04:22:47.688Z,78.17
2019-03-01T04:25:16.892Z,78.38
2019-03-01T04:27:46.134Z,78.37
2019-03-01T04:30:17.033Z,79.16
2019-03-01T04:32:47.454Z,79.27
2019-03-01T04:35:17.589Z,79.48
2019-03-01T04:37:46.825Z,80.36
2019-03-01T04:40:16.097Z,81.46
2019-03-01T04:42:45.363Z,82.81
2019-03-01T04:45:14.589Z,82.51
2019-03-01T04:47:43.893Z,83.54
2019-03-01T04:50:13.309Z,83.69
2019-03-01T04:52:42.651Z,83.76
2019-03-01T04:55:14.038Z,83.46
2019-03-01T04:57:43.276Z,83.71
2019-03-01T05:00:17.664Z,84.09
2019-03-01T05:02:46.898Z,84.69
2019-03-01T05:05:16.695Z,84.61
2019-03-01T05:07:46.005Z,84.99
2019-03-01T05:10:16.159Z,84.85
2019-03-01T05:12:45.380Z,85.28
2019-03-01T05:15:16.534Z,84.86
2019-03-01T05:17:45.758Z,84.72
2019-03-01T05:20:15.408Z,84.53
2019-03-01T05:22:44.655Z,84.78
2019-03-01T05:25:14.008Z,85.67
2019-03-01T05:27:43.347Z,85.59
2019-03-01T05:30:14.186Z,84.33
2019-03-01T05:32:43.439Z,84.72
2019-03-01T05:35:12.690Z,84.61
2019-03-01T05:37:41.903Z,85.33
2019-03-01T05:40:12.101Z,85.45
2019-03-01T05:42:41.314Z,84.95
2019-03-01T05:45:16.357Z,84.83
2019-03-01T05:47:45.576Z,84.24
2019-03-01T05:50:14.886Z,84.83
2019-03-01T05:52:44.101Z,84.50
2019-03-01T05:55:13.530Z,84.93
2019-03-01T05:58:18.609Z,84.74
2019-03-01T06:00:47.887Z,85.20
2019-03-01T06:03:55.875Z,85.04
2019-03-01T06:06:50.562Z,85.00
2019-03-01T06:09:59.393Z,85.42
2019-03-01T06:13:08.434Z,85.44
2019-03-01T06:16:18.833Z,85.45
2019-03-01T06:19:21.105Z,85.15
2019-03-01T06:22:15.222Z,84.52
2019-03-01T06:25:25.581Z,84.92
2019-03-01T06:28:45.200Z,85.46
2019-03-01T06:31:52.365Z,85.37
2019-03-01T06:35:00.457Z,85.08
2019-03-01T06:38:51.894Z,84.68
2019-03-01T06:42:05.546Z,85.25
2019-03-01T06:45:13.414Z,84.62
2019-03-01T06:47:50.922Z,83.78
2019-03-01T06:50:48.047Z,84.08
2019-03-01T06:53:17.268Z,84.29
2019-03-01T06:55:51.950Z,84.85
2019-03-01T06:58:44.448Z,85.71
2019-03-01T07:01:18.575Z,86.11
2019-03-01T07:03:56.807Z,85.85
2019-03-01T07:06:26.183Z,86.03
2019-03-01T07:08:55.392Z,86.04
2019-03-01T07:11:24.631Z,85.93
2019-03-01T07:13:53.873Z,86.18
2019-03-01T07:16:23.132Z,85.89
2019-03-01T07:18:52.345Z,86.75
2019-03-01T07:21:21.596Z,86.93
2019-03-01T07:23:50.826Z,87.74
2019-03-01T07:26:20.094Z,88.41
2019-03-01T07:28:49.339Z,89.55
2019-03-01T07:31:18.589Z,90.27
2019-03-01T07:33:47.841Z,91.40
2019-03-01T07:36:17.093Z,92.01
2019-03-01T07:38:46.316Z,92.30
2019-03-01T07:41:15.575Z,92.39
2019-03-01T07:43:44.816Z,92.69
2019-03-01T07:46:14.039Z,92.64
2019-03-01T07:48:43.283Z,92.11
2019-03-01T07:51:12.523Z,92.67
2019-03-01T07:53:42.187Z,91.85
2019-03-01T07:56:11.510Z,90.81
2019-03-01T07:58:40.774Z,91.08
2019-03-01T08:01:10.091Z,91.13
2019-03-01T08:03:39.346Z,91.18
2019-03-01T08:06:13.030Z,90.85
2019-03-01T08:08:40.094Z,88.77
2019-03-01T08:11:09.361Z,87.59
2019-03-01T08:13:38.631Z,86.77
2019-03-01T08:16:07.850Z,85.72
2019-03-01T08:18:40.080Z,85.41
2019-03-01T08:21:10.080Z,84.71
2019-03-01T08:23:39.208Z,83.77
2019-03-01T08:26:08.417Z,83.96
2019-03-01T08:28:37.694Z,84.68
2019-03-01T08:31:06.924Z,83.37
2019-03-01T08:33:36.203Z,83.73
2019-03-01T08:36:06.890Z,84.31
2019-03-01T08:38:36.436Z,84.28
2019-03-01T08:41:05.623Z,84.57
2019-03-01T08:43:35.776Z,83.84
2019-03-01T08:46:09.291Z,84.00
2019-03-01T08:48:36.341Z,84.01
2019-03-01T08:51:05.550Z,83.32
2019-03-01T08:53:34.789Z,83.19
2019-03-01T08:56:04.022Z,82.01
2019-03-01T08:58:33.279Z,82.04
2019-03-01T09:01:03.977Z,81.17
2019-03-01T09:03:41.759Z,81.08
2019-03-01T09:06:11.171Z,80.36
2019-03-01T09:08:42.928Z,79.38
2019-03-01T09:11:11.750Z,80.22
2019-03-01T09:13:40.980Z,78.54
2019-03-01T09:16:10.213Z,79.44
2019-03-01T09:18:39.425Z,79.57
2019-03-01T09:21:12.527Z,78.71
2019-03-01T09:23:39.784Z,78.95
2019-03-01T09:26:09.031Z,79.99
2019-03-01T09:28:39.573Z,79.73
2019-03-01T09:31:09.269Z,79.54
2019-03-01T09:33:38.486Z,79.47
2019-03-01T09:36:14.455Z,78.18
2019-03-01T09:38:43.588Z,76.79
2019-03-01T09:41:13.456Z,77.55
2019-03-01T09:43:42.711Z,74.61
2019-03-01T09:46:12.046Z,73.13
2019-03-01T09:48:41.275Z,73.61
2019-03-01T09:51:11.407Z,68.81
2019-03-01T09:53:40.751Z,67.48
2019-03-01T09:56:12.972Z,68.93
2019-03-01T09:58:40.950Z,71.56
2019-03-01T10:01:13.458Z,70.44
2019-03-01T10:03:43.276Z,70.93
2019-03-01T10:06:12.548Z,72.33
2019-03-01T10:08:41.802Z,72.66
2019-03-01T10:11:11.127Z,73.08
2019-03-01T10:13:40.356Z,73.19
2019-03-01T10:16:09.626Z,72.55
2019-03-01T10:18:38.879Z,73.44
2019-03-01T10:21:08.123Z,73.91
2019-03-01T10:23:37.389Z,73.46
2019-03-01T10:26:06.644Z,72.96
2019-03-01T10:28:35.870Z,72.96
2019-03-01T10:31:05.152Z,72.91
2019-03-01T10:33:34.360Z,73.11
2019-03-01T10:36:03.630Z,73.27
2019-03-01T10:38:32.869Z,74.63
2019-03-01T10:41:02.161Z,73.53
2019-03-01T10:43:31.371Z,73.30
2019-03-01T10:46:00.613Z,72.89
2019-03-01T10:48:29.834Z,71.50
2019-03-01T10:50:59.243Z,72.26
2019-03-01T10:53:28.468Z,72.99
2019-03-01T10:55:57.755Z,72.25
2019-03-01T10:58:26.988Z,71.49
2019-03-01T11:00:56.242Z,69.94
2019-03-01T11:03:25.503Z,75.03
2019-03-01T11:05:55.143Z,76.73
2019-03-01T11:08:24.424Z,78.00
2019-03-01T11:10:53.666Z,77.60
2019-03-01T11:13:22.915Z,77.78
2019-03-01T11:15:52.181Z,78.41
2019-03-01T11:18:21.420Z,78.91
2019-03-01T11:20:50.659Z,78.42
2019-03-01T11:23:19.997Z,78.67
2019-03-01T11:25:49.239Z,78.53
2019-03-01T11:28:18.453Z,78.13
2019-03-01T11:30:47.776Z,76.87
2019-03-01T11:33:16.991Z,77.32
2019-03-01T11:35:46.205Z,76.34
2019-03-01T11:38:15.469Z,76.49
2019-03-01T11:40:44.686Z,75.78
2019-03-01T11:43:13.954Z,76.24
2019-03-01T11:45:43.179Z,75.05
2019-03-01T11:48:12.441Z,73.87
2019-03-01T11:50:41.676Z,73.35
2019-03-01T11:53:11.113Z,74.47
2019-03-01T11:55:40.320Z,75.00
2019-03-01T11:58:09.587Z,74.29
2019-03-01T12:00:38.830Z,73.65
2019-03-01T12:03:08.094Z,70.76
2019-03-01T12:05:37.307Z,72.46
2019-03-01T12:08:06.605Z,74.77
2019-03-01T12:10:35.823Z,73.78
2019-03-01T12:13:05.103Z,72.66
2019-03-01T12:15:34.318Z,73.24
2019-03-01T12:18:03.574Z,72.64
2019-03-01T12:20:32.829Z,72.18
2019-03-01T12:23:02.095Z,72.75
2019-03-01T12:25:31.339Z,72.39
2019-03-01T12:28:00.582Z,71.67
2019-03-01T12:30:29.811Z,71.45
2019-03-01T12:32:59.069Z,69.73
2019-03-01T12:35:28.302Z,69.39
2019-03-01T12:37:57.576Z,68.61
2019-03-01T12:40:27.221Z,68.93
2019-03-01T12:42:56.489Z,71.23
2019-03-01T12:45:25.737Z,71.97
2019-03-01T12:47:55.086Z,72.60
2019-03-01T12:50:24.358Z,71.35
2019-03-01T12:52:53.621Z,71.41
2019-03-01T12:55:23.205Z,70.57
2019-03-01T12:57:52.463Z,70.61
2019-03-01T13:00:24.237Z,69.83
2019-03-01T13:02:53.545Z,69.72
2019-03-01T13:05:25.732Z,69.04
2019-03-01T13:07:54.472Z,68.88
2019-03-01T13:10:25.878Z,69.11
2019-03-01T13:12:55.091Z,68.80
2019-03-01T13:15:24.403Z,69.42
2019-03-01T13:17:53.824Z,70.47
2019-03-01T13:20:23.167Z,70.13
2019-03-01T13:22:52.474Z,70.84
2019-03-01T13:25:21.751Z,70.77
2019-03-01T13:27:52.394Z,71.80
2019-03-01T13:30:22.245Z,72.54
2019-03-01T13:32:51.464Z,72.46
2019-03-01T13:35:22.269Z,73.80
2019-03-01T13:37:55.051Z,74.43
2019-03-01T13:40:24.405Z,76.95
2019-03-01T13:42:54.007Z,80.28
2019-03-01T13:45:23.393Z,81.80
2019-03-01T13:47:52.604Z,83.52
2019-03-01T13:50:21.931Z,85.26
2019-03-01T13:52:51.183Z,85.49
2019-03-01T13:55:22.470Z,85.51
2019-03-01T13:57:51.639Z,86.43
2019-03-01T14:00:21.649Z,88.07
2019-03-01T14:02:51.005Z,88.34
2019-03-01T14:05:20.561Z,87.57
2019-03-01T14:07:55.529Z,87.13
2019-03-01T14:10:20.998Z,87.49
2019-03-01T14:12:50.251Z,86.92
2019-03-01T14:15:19.610Z,87.32
2019-03-01T14:17:48.852Z,86.68
2019-03-01T14:20:20.995Z,87.37
2019-03-01T14:22:50.095Z,86.50
2019-03-01T14:25:19.347Z,86.05
2019-03-01T14:27:48.871Z,84.65
2019-03-01T14:30:19.712Z,84.49
2019-03-01T14:32:49.011Z,84.41
2019-03-01T14:35:20.492Z,84.30
2019-03-01T14:37:53.952Z,83.84
2019-03-01T14:40:22.476Z,84.52
2019-03-01T14:42:51.378Z,84.18
2019-03-01T14:45:22.551Z,83.98
2019-03-01T14:47:52.160Z,84.47
2019-03-01T14:50:22.837Z,85.26
2019-03-01T14:52:56.711Z,87.30
2019-03-01T14:55:26.338Z,87.58
2019-03-01T14:57:59.398Z,89.37
2019-03-01T15:00:35.475Z,90.48
2019-03-01T15:03:32.250Z,91.00
2019-03-01T15:06:01.716Z,90.84
2019-03-01T15:08:31.333Z,90.86
2019-03-01T15:11:04.365Z,91.06
2019-03-01T15:13:34.676Z,90.89
2019-03-01T15:16:05.922Z,89.09
2019-03-01T15:18:35.560Z,89.88
2019-03-01T15:21:05.509Z,89.41
2019-03-01T15:23:34.943Z,89.41
2019-03-01T15:26:04.416Z,88.84
2019-03-01T15:28:35.764Z,87.13
2019-03-01T15:31:05.133Z,87.09
2019-03-01T15:33:34.651Z,87.18
2019-03-01T15:36:03.933Z,86.87
2019-03-01T15:38:33.203Z,83.84
2019-03-01T15:41:03.594Z,84.67
2019-03-01T15:43:33.967Z,84.27
2019-03-01T15:46:03.234Z,83.27
2019-03-01T15:48:34.341Z,82.38
2019-03-01T15:51:03.924Z,81.00
2019-03-01T15:53:33.320Z,82.54
2019-03-01T15:56:05.829Z,82.31
2019-03-01T15:58:34.234Z,81.70
2019-03-01T16:01:05.895Z,81.30
2019-03-01T16:03:36.485Z,80.14
2019-03-01T16:06:10.175Z,80.76
2019-03-01T16:08:37.031Z,79.81
2019-03-01T16:11:09.262Z,79.85
2019-03-01T16:13:37.238Z,79.92
2019-03-01T16:16:06.484Z,79.75
2019-03-01T16:18:38.951Z,78.78
2019-03-01T16:21:06.683Z,78.70
2019-03-01T16:23:35.949Z,77.79
2019-03-01T16:26:05.218Z,78.47
2019-03-01T16:28:34.497Z,77.59
2019-03-01T16:31:03.925Z,77.77
2019-03-01T16:33:33.199Z,78.02
2019-03-01T16:36:04.101Z,77.98
2019-03-01T16:38:40.747Z,77.83
2019-03-01T16:41:07.400Z,78.22
2019-03-01T16:43:35.319Z,78.73
2019-03-01T16:46:04.548Z,79.04
2019-03-01T16:48:33.807Z,79.11
2019-03-01T16:51:03.123Z,78.61
2019-03-01T16:53:32.387Z,78.93
2019-03-01T16:56:02.506Z,78.96
2019-03-01T16:58:32.639Z,79.27
2019-03-01T17:01:01.872Z,79.34
2019-03-01T17:03:31.149Z,79.55
2019-03-01T17:06:00.905Z,79.66
2019-03-01T17:08:30.259Z,78.95
2019-03-01T17:11:02.544Z,78.83
2019-03-01T17:13:30.488Z,78.91
2019-03-01T17:15:59.722Z,79.76
2019-03-01T17:18:29.143Z,80.08
2019-03-01T17:20:58.535Z,80.25
2019-03-01T17:23:27.770Z,79.54
2019-03-01T17:25:57.032Z,79.97
2019-03-01T17:28:26.586Z,79.34
2019-03-01T17:30:58.121Z,79.80
2019-03-01T17:33:27.141Z,78.17
2019-03-01T17:35:56.372Z,78.98
2019-03-01T17:38:25.837Z,79.14
2019-03-01T17:40:55.086Z,79.10
2019-03-01T17:43:25.947Z,79.22
2019-03-01T17:45:57.878Z,79.85
2019-03-01T17:48:27.235Z,79.81
2019-03-01T17:50:56.632Z,79.90
2019-03-01T17:53:25.863Z,80.25
2019-03-01T17:55:55.172Z,80.00
2019-03-01T17:58:24.380Z,80.50
2019-03-01T18:00:53.626Z,80.09
2019-03-01T18:03:22.881Z,79.87
2019-03-01T18:05:52.157Z,80.03
2019-03-01T18:08:21.455Z,79.56
2019-03-01T18:10:50.695Z,79.90
2019-03-01T18:13:20.461Z,80.38
2019-03-01T18:15:49.754Z,80.10
2019-03-01T18:18:18.956Z,79.74
2019-03-01T18:20:48.205Z,80.37
2019-03-01T18:23:17.471Z,80.01
2019-03-01T18:25:46.725Z,79.84
2019-03-01T18:28:15.986Z,80.39
2019-03-01T18:30:45.257Z,79.87
2019-03-01T18:33:16.905Z,80.26
2019-03-01T18:35:45.482Z,80.75
2019-03-01T18:38:14.707Z,81.41
2019-03-01T18:40:43.942Z,82.32
2019-03-01T18:43:13.794Z,82.36
2019-03-01T18:45:43.228Z,82.83
2019-03-01T18:48:12.404Z,83.14
2019-03-01T18:50:41.655Z,82.31
2019-03-01T18:53:11.366Z,82.45
2019-03-01T18:55:40.662Z,82.63
2019-03-01T18:58:13.908Z,82.80
2019-03-01T19:00:41.652Z,82.74
2019-03-01T19:03:10.909Z,82.81
2019-03-01T19:05:41.274Z,82.88
2019-03-01T19:08:10.609Z,83.03
2019-03-01T19:10:39.869Z,83.03
2019-03-01T19:13:09.153Z,82.88
2019-03-01T19:15:38.407Z,82.57
2019-03-01T19:18:07.634Z,82.17
2019-03-01T19:20:38.027Z,81.34
2019-03-01T19:23:07.894Z,81.46
2019-03-01T19:25:37.142Z,81.40
2019-03-01T19:28:06.392Z,81.35
2019-03-01T19:30:35.761Z,81.52
2019-03-01T19:33:05.194Z,81.38
2019-03-01T19:35:34.486Z,81.95
2019-03-01T19:38:03.740Z,81.48
2019-03-01T19:40:33.011Z,81.20
2019-03-01T19:43:02.289Z,81.56
2019-03-01T19:45:31.505Z,81.47
2019-03-01T19:48:03.248Z,81.41
2019-03-01T19:50:31.822Z,81.55
2019-03-01T19:53:01.073Z,81.50
2019-03-01T19:55:30.331Z,81.47
2019-03-01T19:57:59.701Z,81.43
2019-03-01T20:00:29.151Z,81.18
2019-03-01T20:02:58.407Z,80.98
2019-03-01T20:05:31.609Z,80.87
2019-03-01T20:07:58.929Z,80.85
2019-03-01T20:10:28.172Z,81.20
2019-03-01T20:12:57.549Z,81.06
2019-03-01T20:15:27.169Z,81.61
2019-03-01T20:17:56.531Z,82.07
2019-03-01T20:20:26.029Z,82.37
2019-03-01T20:22:55.377Z,82.73
2019-03-01T20:25:24.583Z,82.71
2019-03-01T20:27:53.890Z,82.96
2019-03-01T20:30:28.478Z,82.90
2019-03-01T20:32:55.203Z,83.15
2019-03-01T20:35:25.947Z,82.97
2019-03-01T20:37:55.639Z,82.83
2019-03-01T20:40:26.823Z,82.14
2019-03-01T20:42:59.855Z,81.99
2019-03-01T20:45:29.845Z,81.81
2019-03-01T20:47:59.359Z,82.31
2019-03-01T20:50:28.593Z,81.88
2019-03-01T20:52:58.161Z,82.29
2019-03-01T20:55:27.445Z,82.45
2019-03-01T20:57:59.857Z,81.82
2019-03-01T21:00:29.779Z,82.18
2019-03-01T21:02:59.321Z,82.27
2019-03-01T21:05:30.416Z,82.45
2019-03-01T21:07:59.764Z,82.13
2019-03-01T21:10:29.085Z,82.70
2019-03-01T21:12:58.357Z,83.27
2019-03-01T21:15:27.606Z,82.95
2019-03-01T21:17:58.499Z,83.16
2019-03-01T21:20:28.203Z,83.06
2019-03-01T21:22:57.448Z,83.99
2019-03-01T21:25:26.717Z,84.23
2019-03-01T21:27:57.592Z,84.86
2019-03-01T21:30:27.549Z,85.35
2019-03-01T21:32:56.815Z,85.13
2019-03-01T21:35:26.088Z,84.76
2019-03-01T21:37:55.642Z,85.60
2019-03-01T21:40:24.921Z,84.94
2019-03-01T21:42:57.372Z,85.89
2019-03-01T21:45:25.262Z,86.05
2019-03-01T21:47:54.555Z,86.32
2019-03-01T21:50:23.984Z,86.03
2019-03-01T21:52:53.241Z,86.10
2019-03-01T21:55:24.807Z,86.20
2019-03-01T21:57:53.677Z,86.07
2019-03-01T22:00:25.242Z,85.35
2019-03-01T22:02:54.639Z,85.59
2019-03-01T22:05:23.898Z,85.48
2019-03-01T22:07:53.709Z,85.34
2019-03-01T22:10:22.971Z,85.72
2019-03-01T22:12:52.205Z,86.01
2019-03-01T22:15:25.550Z,86.71
2019-03-01T22:17:53.746Z,88.28
2019-03-01T22:20:23.140Z,89.50
2019-03-01T22:22:52.378Z,90.19
2019-03-01T22:25:21.740Z,91.00
2019-03-01T22:27:50.979Z,91.22
2019-03-01T22:30:23.938Z,91.84
2019-03-01T22:32:53.219Z,92.19
2019-03-01T22:35:23.194Z,91.84
2019-03-01T22:37:52.473Z,92.39
2019-03-01T22:40:24.090Z,93.13
2019-03-01T22:42:52.712Z,93.03
2019-03-01T22:45:22.191Z,93.04
2019-03-01T22:47:51.521Z,92.92
2019-03-01T22:50:20.816Z,93.00
2019-03-01T22:52:50.146Z,92.95
2019-03-01T22:55:19.413Z,92.58
2019-03-01T22:57:48.666Z,92.94
2019-03-01T23:01:03.395Z,93.72
2019-03-01T23:03:32.938Z,93.95
2019-03-01T23:06:02.497Z,93.62
2019-03-01T23:08:35.432Z,93.77
2019-03-01T23:11:02.749Z,93.38
2019-03-01T23:13:32.171Z,93.20
2019-03-01T23:16:01.469Z,93.59
2019-03-01T23:18:30.985Z,93.88
2019-03-01T23:21:01.107Z,93.76
2019-03-01T23:23:34.006Z,93.64
2019-03-01T23:26:03.272Z,93.75
2019-03-01T23:28:32.610Z,93.25
2019-03-01T23:31:03.667Z,93.54
2019-03-01T23:33:33.056Z,93.49
2019-03-01T23:36:02.371Z,94.25
2019-03-01T23:38:31.688Z,94.33
2019-03-01T23:41:00.937Z,94.60
2019-03-01T23:43:30.785Z,94.17
2019-03-01T23:46:00.957Z,93.96
2019-03-01T23:48:31.142Z,94.24
2019-03-01T23:51:00.521Z,94.04
2019-03-01T23:53:30.892Z,93.77
2019-03-01T23:56:00.857Z,94.25
2019-03-01T23:58:30.234Z,93.98
